Time;durP1;ratioP1;P1;durP2;ratioP2;P2;SDS_P1;SDS_P2;PMS_P1;PMS_P2;Temp;Humidity;BMP_temperature;BMP_pressure;BME280_temperature;BME280_humidity;BME280_pressure;Samples;Min_cycle;Max_cycle;Signal;HPM_P1;HPM_P2
2021/04/12 00:01:19;;;;;;;3.00;2.80;;;;;;;7.06;90.22;96382.09;5055746;28;20423;-59
2021/04/12 00:04:06;;;;;;;2.47;2.37;;;;;;;6.98;89.48;96376.25;5056174;28;20451;-58
2021/04/12 00:06:58;;;;;;;3.07;2.87;;;;;;;7.03;89.42;96376.47;5056433;28;20431;-58
2021/04/12 00:09:31;;;;;;;2.90;2.70;;;;;;;7.08;88.29;96382.69;5052015;28;20844;-58
2021/04/12 00:12:01;;;;;;;3.20;3.00;;;;;;;6.78;87.64;96388.53;5056657;28;20564;-58
2021/04/12 00:14:28;;;;;;;3.93;3.63;;;;;;;6.90;90.44;96387.72;5055931;28;20869;-58
2021/04/12 00:17:01;;;;;;;3.67;3.47;;;;;;;6.78;90.07;96386.72;5056239;28;20538;-59
2021/04/12 00:19:50;;;;;;;3.70;3.50;;;;;;;6.96;88.86;96392.16;5056233;28;20447;-59
2021/04/12 00:22:31;;;;;;;3.97;3.77;;;;;;;6.91;88.70;96399.78;5055539;28;20430;-58
2021/04/12 00:25:07;;;;;;;3.53;3.33;;;;;;;6.77;88.39;96410.44;5056166;28;20903;-57
2021/04/12 00:27:38;;;;;;;4.10;3.80;;;;;;;6.85;88.25;96413.63;5055887;28;20400;-58
2021/04/12 00:30:13;;;;;;;3.37;3.10;;;;;;;6.64;87.95;96418.25;5055638;28;20457;-58
2021/04/12 00:32:44;;;;;;;3.80;3.60;;;;;;;6.09;90.11;96424.56;5038337;28;20515;-58
2021/04/12 00:35:28;;;;;;;4.30;4.00;;;;;;;6.07;90.20;96431.75;5056181;28;20467;-59
2021/04/12 00:38:09;;;;;;;3.33;3.13;;;;;;;5.79;92.60;96444.88;5050553;28;20463;-58
2021/04/12 00:40:55;;;;;;;3.70;3.40;;;;;;;6.28;89.05;96443.88;5056275;28;20458;-58
2021/04/12 00:43:56;;;;;;;3.63;3.43;;;;;;;6.27;89.39;96450.88;5055633;28;20426;-58
2021/04/12 00:46:46;;;;;;;4.27;3.97;;;;;;;6.57;88.69;96453.97;5036354;28;20396;-58
2021/04/12 00:49:26;;;;;;;4.10;3.80;;;;;;;6.46;87.93;96454.56;5051916;28;20464;-59
2021/04/12 00:51:59;;;;;;;3.90;3.60;;;;;;;6.36;88.34;96461.97;5055674;28;20500;-59
2021/04/12 00:54:40;;;;;;;4.50;4.10;;;;;;;6.57;88.52;96469.63;5055647;28;20422;-59
2021/04/12 00:57:42;;;;;;;4.00;3.80;;;;;;;6.29;88.33;96463.75;5054663;28;20461;-58
2021/04/12 01:00:19;;;;;;;4.30;4.00;;;;;;;6.33;88.39;96470.97;5054638;28;20492;-58
2021/04/12 01:02:59;;;;;;;4.50;4.20;;;;;;;6.27;89.63;96479.59;5055234;28;20499;-58
2021/04/12 01:06:00;;;;;;;4.63;4.33;;;;;;;6.35;88.57;96478.59;5037981;28;20416;-58
2021/04/12 01:08:50;;;;;;;4.90;4.60;;;;;;;6.44;88.14;96482.66;4985655;28;20457;-58
2021/04/12 01:11:49;;;;;;;4.40;4.10;;;;;;;6.21;88.68;96486.38;5034071;28;20492;-59
2021/04/12 01:14:14;;;;;;;4.93;4.50;;;;;;;6.46;88.96;96491.09;5054533;28;20433;-59
2021/04/12 01:17:06;;;;;;;4.87;4.27;;;;;;;6.12;90.12;96495.38;5054897;28;20459;-58
2021/04/12 01:19:53;;;;;;;4.83;4.43;;;;;;;6.08;88.75;96496.78;5039005;28;20234;-58
2021/04/12 01:22:36;;;;;;;4.70;4.40;;;;;;;6.04;89.65;96500.78;5054863;28;20869;-58
2021/04/12 01:25:49;;;;;;;5.30;4.90;;;;;;;6.28;87.14;96504.69;5054619;28;20460;-58
2021/04/12 01:28:52;;;;;;;5.27;4.90;;;;;;;6.22;88.32;96506.28;5012789;28;20481;-58
2021/04/12 01:31:36;;;;;;;5.00;4.60;;;;;;;6.27;89.24;96520.53;5013208;28;20408;-58
2021/04/12 01:34:26;;;;;;;5.73;5.33;;;;;;;6.38;88.94;96518.16;5051240;28;20418;-58
2021/04/12 01:36:54;;;;;;;5.60;5.10;;;;;;;6.53;86.99;96512.78;5032796;28;20459;-59
2021/04/12 01:39:40;;;;;;;5.60;5.20;;;;;;;6.23;88.53;96513.09;5046399;28;20957;-58
2021/04/12 01:42:38;;;;;;;5.50;5.10;;;;;;;6.18;87.28;96515.47;5040406;28;20798;-58
2021/04/12 01:45:26;;;;;;;5.13;4.73;;;;;;;6.23;88.08;96522.75;5054554;28;20510;-59
2021/04/12 01:48:35;;;;;;;5.00;4.60;;;;;;;6.27;86.75;96528.38;5054425;28;20451;-59
2021/04/12 01:51:35;;;;;;;4.73;4.40;;;;;;;6.04;88.10;96537.28;5016386;28;20415;-59
2021/04/12 01:54:31;;;;;;;4.70;4.33;;;;;;;6.16;87.21;96540.94;5053863;28;20410;-59
2021/04/12 01:57:28;;;;;;;5.33;4.93;;;;;;;6.21;85.72;96549.00;5054200;28;20454;-59
2021/04/12 02:00:22;;;;;;;5.30;4.90;;;;;;;6.13;87.24;96562.22;5054236;28;20434;-58
2021/04/12 02:03:15;;;;;;;4.73;4.40;;;;;;;5.85;85.32;96565.84;5054079;28;20429;-59
2021/04/12 02:06:01;;;;;;;4.77;4.40;;;;;;;5.81;86.59;96580.22;5054460;28;20386;-58
2021/04/12 02:09:04;;;;;;;5.30;4.90;;;;;;;6.00;86.99;96603.84;5053386;28;20441;-59
2021/04/12 02:11:49;;;;;;;4.50;4.20;;;;;;;6.05;86.89;96596.25;5054440;28;20394;-58
2021/04/12 02:14:24;;;;;;;5.50;5.10;;;;;;;5.99;86.93;96593.63;5053990;28;20925;-58
2021/04/12 02:17:10;;;;;;;4.93;4.53;;;;;;;6.02;86.00;96593.22;5054077;28;20449;-60
2021/04/12 02:19:43;;;;;;;4.50;4.20;;;;;;;5.92;85.90;96598.81;5053634;28;20441;-58
2021/04/12 02:22:29;;;;;;;4.60;4.23;;;;;;;5.95;86.04;96603.63;5054161;28;20750;-59
2021/04/12 02:25:11;;;;;;;5.10;4.70;;;;;;;5.94;85.23;96604.59;5053486;28;20474;-58
2021/04/12 02:27:58;;;;;;;4.07;3.77;;;;;;;5.65;86.81;96606.59;5053409;28;20887;-58
2021/04/12 02:30:41;;;;;;;3.53;3.23;;;;;;;5.71;86.34;96604.00;5053907;28;20418;-58
2021/04/12 02:33:30;;;;;;;4.13;3.83;;;;;;;5.56;86.27;96610.31;5054052;28;20754;-59
2021/04/12 02:36:11;;;;;;;4.60;4.20;;;;;;;5.48;87.65;96607.84;5053707;28;20406;-59
2021/04/12 02:38:47;;;;;;;5.60;5.20;;;;;;;5.67;88.19;96613.19;5053031;28;20449;-58
2021/04/12 02:41:35;;;;;;;5.13;4.73;;;;;;;5.78;87.61;96604.09;5053837;28;20768;-58
2021/04/12 02:44:21;;;;;;;4.87;4.47;;;;;;;5.57;87.04;96620.56;5053394;28;20512;-59
2021/04/12 02:47:08;;;;;;;5.90;5.30;;;;;;;5.35;89.45;96623.34;5053476;28;20427;-58
2021/04/12 02:49:39;;;;;;;5.60;5.10;;;;;;;5.38;89.94;96631.59;5053561;28;20429;-58
2021/04/12 02:52:31;;;;;;;6.07;5.57;;;;;;;5.20;89.77;96637.22;5053451;28;20412;-59
2021/04/12 02:55:24;;;;;;;5.27;4.87;;;;;;;5.54;89.54;96630.53;5052706;28;20459;-58
2021/04/12 02:58:04;;;;;;;5.90;5.40;;;;;;;5.37;89.35;96631.78;5043443;28;21027;-59
2021/04/12 03:00:38;;;;;;;5.03;4.53;;;;;;;5.51;88.94;96634.31;5053188;28;20433;-59
2021/04/12 03:03:28;;;;;;;5.87;5.37;;;;;;;5.46;88.57;96631.47;5053814;28;20444;-59
2021/04/12 03:06:31;;;;;;;6.03;5.53;;;;;;;5.55;87.98;96639.97;5053133;28;20397;-59
2021/04/12 03:09:33;;;;;;;4.83;4.43;;;;;;;5.05;89.64;96654.69;5052781;28;20448;-58
2021/04/12 03:12:23;;;;;;;5.60;5.20;;;;;;;5.15;91.77;96659.63;5052488;28;20409;-58
2021/04/12 03:15:18;;;;;;;5.20;4.80;;;;;;;5.24;89.23;96663.72;5053429;28;20405;-58
2021/04/12 03:18:02;;;;;;;6.47;5.87;;;;;;;5.44;89.65;96663.91;5052785;28;20452;-58
2021/04/12 03:20:56;;;;;;;6.17;5.57;;;;;;;5.52;88.25;96669.81;5052819;28;20471;-58
2021/04/12 03:23:40;;;;;;;5.60;5.10;;;;;;;5.59;88.29;96675.91;5053224;28;20438;-58
2021/04/12 03:26:19;;;;;;;5.40;4.90;;;;;;;5.22;88.54;96674.31;5053009;28;20412;-58
2021/04/12 03:29:14;;;;;;;6.07;5.57;;;;;;;5.22;89.69;96663.91;5052729;28;20924;-58
2021/04/12 03:31:49;;;;;;;5.70;5.10;;;;;;;5.19;89.83;96673.88;5038523;28;20774;-58
2021/04/12 03:34:20;;;;;;;8.03;5.00;;;;;;;5.47;88.44;96666.94;5057095;28;20864;-58
2021/04/12 03:36:51;;;;;;;5.60;5.10;;;;;;;5.60;87.40;96668.91;5057019;28;20510;-58
2021/04/12 03:39:25;;;;;;;6.10;5.60;;;;;;;5.57;88.47;96669.25;5057063;28;20823;-58
2021/04/12 03:42:17;;;;;;;6.43;5.67;;;;;;;5.56;89.00;96667.66;5056539;28;20414;-58
2021/04/12 03:44:52;;;;;;;6.50;5.40;;;;;;;5.54;88.51;96680.06;5057050;28;20414;-58
2021/04/12 03:47:48;;;;;;;6.00;4.90;;;;;;;5.62;87.75;96690.34;5056646;28;20412;-59
2021/04/12 03:50:52;;;;;;;6.27;5.67;;;;;;;5.69;87.24;96684.19;5056325;28;20530;-59
2021/04/12 03:53:36;;;;;;;6.20;5.60;;;;;;;5.55;86.24;96697.28;5056198;28;20440;-58
2021/04/12 03:56:15;;;;;;;6.00;5.47;;;;;;;5.40;88.08;96704.38;5056719;28;20917;-59
2021/04/12 03:58:47;;;;;;;7.43;5.80;;;;;;;5.47;89.09;96719.06;5038432;28;20451;-58
2021/04/12 04:01:30;;;;;;;6.77;5.97;;;;;;;5.67;89.07;96716.66;5056898;28;20410;-58
2021/04/12 04:04:20;;;;;;;6.73;5.80;;;;;;;5.70;86.82;96727.53;5056899;28;20517;-58
2021/04/12 04:07:17;;;;;;;6.27;5.77;;;;;;;5.82;87.58;96735.63;5055764;28;20409;-58
2021/04/12 04:09:52;;;;;;;6.40;5.77;;;;;;;5.69;87.55;96738.16;5055900;28;20445;-58
2021/04/12 04:12:18;;;;;;;7.00;6.40;;;;;;;5.66;88.01;96736.69;5056392;28;20492;-58
2021/04/12 04:15:02;;;;;;;6.87;5.80;;;;;;;5.69;87.57;96740.75;5056429;28;20505;-58
2021/04/12 04:17:33;;;;;;;5.63;5.13;;;;;;;5.46;87.91;96733.09;5056101;28;20191;-58
2021/04/12 04:20:17;;;;;;;7.70;6.47;;;;;;;5.61;87.87;96739.06;5055724;28;20941;-59
2021/04/12 04:23:15;;;;;;;6.30;5.70;;;;;;;5.77;87.00;96738.81;5056071;28;20835;-58
2021/04/12 04:26:02;;;;;;;6.40;5.80;;;;;;;5.58;87.57;96743.84;5024863;28;20421;-59
2021/04/12 04:29:07;;;;;;;5.43;5.03;;;;;;;5.63;86.98;96744.09;5055844;28;20472;-58
2021/04/12 04:31:57;;;;;;;5.27;4.87;;;;;;;5.70;86.32;96743.16;5056459;28;20383;-58
2021/04/12 04:35:01;;;;;;;5.30;4.90;;;;;;;5.66;86.80;96751.53;5056226;28;20436;-58
2021/04/12 04:37:44;;;;;;;5.37;4.93;;;;;;;5.58;88.07;96770.69;5039608;28;20559;-60
2021/04/12 04:40:50;;;;;;;4.70;4.33;;;;;;;5.23;89.06;96766.28;5056093;28;20504;-58
2021/04/12 04:43:37;;;;;;;4.50;4.20;;;;;;;5.52;88.14;96784.47;5044229;28;20428;-59
2021/04/12 04:46:28;;;;;;;4.27;3.93;;;;;;;5.37;87.32;96783.69;5055976;28;20409;-58
2021/04/12 04:49:27;;;;;;;4.53;4.13;;;;;;;5.30;88.43;96785.41;5054844;28;20438;-58
2021/04/12 04:52:14;;;;;;;4.77;3.90;;;;;;;5.49;88.28;96786.63;5053064;28;20420;-58
2021/04/12 04:54:54;;;;;;;4.43;4.03;;;;;;;5.65;87.97;96792.41;5055837;28;20436;-58
2021/04/12 04:57:31;;;;;;;4.43;4.10;;;;;;;5.65;87.50;96805.44;5055359;28;20455;-58
2021/04/12 05:00:09;;;;;;;4.23;3.83;;;;;;;5.58;86.31;96815.00;5055509;28;20432;-59
2021/04/12 05:02:46;;;;;;;4.90;3.67;;;;;;;5.61;86.93;96814.63;5037731;28;20774;-58
2021/04/12 05:05:47;;;;;;;3.53;3.23;;;;;;;5.40;87.88;96821.59;5054526;28;20417;-59
2021/04/12 05:08:15;;;;;;;4.30;4.00;;;;;;;5.40;87.75;96821.59;5054626;28;20777;-59
2021/04/12 05:11:24;;;;;;;4.10;3.70;;;;;;;5.59;87.40;96819.22;5037536;28;20409;-58
2021/04/12 05:14:10;;;;;;;4.17;3.87;;;;;;;5.62;86.40;96831.88;5055548;28;20397;-59
2021/04/12 05:16:41;;;;;;;4.63;4.23;;;;;;;5.73;85.37;96830.59;5055253;28;20979;-59
2021/04/12 05:19:34;;;;;;;4.60;4.20;;;;;;;5.54;86.74;96836.41;5054431;28;20442;-58
2021/04/12 05:22:30;;;;;;;4.93;4.53;;;;;;;5.52;86.95;96839.19;5033845;28;20426;-59
2021/04/12 05:25:18;;;;;;;5.23;4.60;;;;;;;5.70;85.11;96839.59;5035506;28;20403;-60
2021/04/12 05:28:15;;;;;;;4.60;4.20;;;;;;;5.67;84.34;96854.81;5034894;28;20789;-59
2021/04/12 05:30:50;;;;;;;4.87;4.57;;;;;;;5.39;86.08;96865.06;5035211;28;20442;-59
2021/04/12 05:33:42;;;;;;;5.63;4.90;;;;;;;5.18;88.44;96859.78;5035063;28;20524;-59
2021/04/12 05:36:16;;;;;;;5.27;4.77;;;;;;;5.20;87.95;96861.22;5049006;28;20823;-59
2021/04/12 05:39:19;;;;;;;4.90;4.40;;;;;;;4.88;90.19;96865.94;5054524;28;20426;-60
2021/04/12 05:41:52;;;;;;;5.50;4.90;;;;;;;4.98;90.62;96862.09;5054387;28;20412;-60
2021/04/12 05:44:50;;;;;;;4.70;4.30;;;;;;;5.10;89.19;96865.06;5055043;28;20546;-58
2021/04/12 05:47:48;;;;;;;5.87;5.37;;;;;;;5.12;89.50;96868.31;5053991;28;20639;-59
2021/04/12 05:50:51;;;;;;;5.47;5.00;;;;;;;5.31;87.97;96883.38;5054230;28;20449;-60
2021/04/12 05:53:51;;;;;;;5.67;5.17;;;;;;;5.25;88.89;96897.94;5053838;28;20405;-58
2021/04/12 05:56:48;;;;;;;6.77;6.17;;;;;;;5.08;89.08;96904.31;5054726;28;20411;-59
2021/04/12 05:59:50;;;;;;;6.40;5.80;;;;;;;5.14;88.04;96908.00;5054087;28;20424;-58
2021/04/12 06:02:42;;;;;;;6.57;5.97;;;;;;;5.32;88.51;96915.47;5054413;28;20401;-58
2021/04/12 06:05:34;;;;;;;6.80;6.23;;;;;;;5.31;88.27;96916.47;5053906;28;20928;-60
2021/04/12 06:08:50;;;;;;;7.13;6.53;;;;;;;5.11;88.12;96923.97;5053913;28;20405;-59
2021/04/12 06:11:49;;;;;;;8.17;7.37;;;;;;;5.28;88.98;96927.22;5054307;28;20921;-60
2021/04/12 06:14:28;;;;;;;7.57;6.87;;;;;;;5.49;86.96;96938.56;5053721;28;20501;-60
2021/04/12 06:17:20;;;;;;;8.40;7.60;;;;;;;5.44;87.91;96951.31;5054058;28;20483;-60
2021/04/12 06:20:28;;;;;;;7.47;6.77;;;;;;;5.44;87.39;96948.72;5053198;28;20453;-59
2021/04/12 06:23:06;;;;;;;7.80;6.93;;;;;;;5.29;86.20;96949.69;5041368;28;20472;-59
2021/04/12 06:26:10;;;;;;;8.03;7.10;;;;;;;5.34;88.28;96945.56;5053967;28;20426;-60
2021/04/12 06:28:38;;;;;;;7.73;7.03;;;;;;;5.51;86.82;96949.59;5053397;28;20425;-58
2021/04/12 06:31:51;;;;;;;7.90;7.10;;;;;;;5.75;85.83;96959.78;5054009;28;20398;-59
2021/04/12 06:34:38;;;;;;;8.27;7.57;;;;;;;5.84;86.34;96968.31;5054155;28;20413;-58
2021/04/12 06:37:29;;;;;;;7.93;7.23;;;;;;;5.82;86.79;96968.47;5052837;28;20831;-59
2021/04/12 06:40:00;;;;;;;9.20;7.60;;;;;;;5.90;86.57;96971.03;5053590;28;20455;-58
2021/04/12 06:42:44;;;;;;;8.30;7.57;;;;;;;6.15;86.62;96972.34;5053735;28;20851;-58
2021/04/12 06:45:33;;;;;;;10.40;8.53;;;;;;;6.04;85.30;96974.59;5053625;28;20454;-59
2021/04/12 06:48:08;;;;;;;7.70;7.00;;;;;;;5.88;86.85;96987.84;5053591;28;20394;-58
2021/04/12 06:50:51;;;;;;;10.93;8.20;;;;;;;5.73;87.10;96989.59;5052990;28;20428;-58
2021/04/12 06:53:53;;;;;;;7.47;6.67;;;;;;;5.68;88.19;96995.38;5051653;28;20429;-57
2021/04/12 06:56:21;;;;;;;8.90;8.00;;;;;;;5.27;89.26;96988.94;5054075;28;20447;-56
2021/04/12 06:59:18;;;;;;;10.87;8.00;;;;;;;5.55;89.24;96995.19;5052984;28;20435;-56
2021/04/12 07:02:02;;;;;;;11.70;8.73;;;;;;;5.70;89.64;96995.19;5053611;28;20404;-57
2021/04/12 07:04:33;;;;;;;9.00;8.10;;;;;;;5.83;87.46;97000.63;5053431;28;20386;-57
2021/04/12 07:07:40;;;;;;;9.27;8.30;;;;;;;5.92;87.11;97009.97;5052198;28;20442;-57
2021/04/12 07:10:27;;;;;;;8.13;7.30;;;;;;;5.36;88.79;97016.53;4965100;28;20443;-58
2021/04/12 07:13:16;;;;;;;7.93;7.20;;;;;;;5.26;89.04;97029.00;5053679;28;20405;-57
2021/04/12 07:16:12;;;;;;;9.53;8.30;;;;;;;5.09;90.33;97030.91;5053362;28;20829;-57
2021/04/12 07:18:57;;;;;;;10.23;8.30;;;;;;;4.60;93.85;97032.22;5051957;28;20491;-63
2021/04/12 07:21:50;;;;;;;10.70;9.40;;;;;;;4.29;94.55;97047.03;5053324;28;20413;-59
2021/04/12 07:24:34;;;;;;;9.63;8.60;;;;;;;4.10;96.30;97047.44;5053109;28;20393;-59
2021/04/12 07:27:41;;;;;;;10.30;9.30;;;;;;;4.28;97.25;97047.19;5052729;28;20433;-62
2021/04/12 07:30:06;;;;;;;12.83;10.30;;;;;;;4.43;96.63;97045.50;5023853;28;20481;-62
2021/04/12 07:32:31;;;;;;;13.60;10.53;;;;;;;4.51;95.32;97042.88;5052760;28;20963;-59
2021/04/12 07:35:12;;;;;;;13.83;11.80;;;;;;;4.14;96.01;97044.34;5053010;28;20202;-59
2021/04/12 07:37:37;;;;;;;14.90;11.13;;;;;;;4.07;97.52;97052.97;5030865;28;20281;-60
2021/04/12 07:40:24;;;;;;;12.00;10.47;;;;;;;4.23;97.89;97052.91;5047536;28;20467;-59
2021/04/12 07:43:09;;;;;;;11.97;10.70;;;;;;;4.36;97.58;97050.59;5045954;28;20184;-61
2021/04/12 07:45:58;;;;;;;13.40;10.73;;;;;;;4.30;96.66;97064.25;5052694;28;20895;-59
2021/04/12 07:48:45;;;;;;;12.50;11.20;;;;;;;3.90;98.31;97072.19;5052295;28;20793;-61
2021/04/12 07:51:31;;;;;;;13.57;11.63;;;;;;;4.00;98.32;97070.22;5051983;28;20420;-59
2021/04/12 07:54:25;;;;;;;15.67;12.53;;;;;;;4.19;98.12;97073.25;5052643;28;20490;-61
2021/04/12 07:57:08;;;;;;;16.93;13.00;;;;;;;4.02;98.71;97089.06;5052152;28;20442;-61
2021/04/12 07:59:51;;;;;;;14.33;12.73;;;;;;;4.11;98.17;97082.88;5032948;28;20421;-61
2021/04/12 08:02:48;;;;;;;16.30;12.20;;;;;;;4.23;98.41;97089.31;5032911;28;20460;-59
2021/04/12 08:05:31;;;;;;;17.83;13.40;;;;;;;4.34;97.01;97094.16;5033014;28;20402;-61
2021/04/12 08:08:34;;;;;;;16.17;12.63;;;;;;;3.91;99.24;97092.03;5051555;28;20415;-64
2021/04/12 08:11:02;;;;;;;15.90;13.17;;;;;;;4.25;98.07;97099.53;5051871;28;20968;-59
2021/04/12 08:13:54;;;;;;;19.57;14.27;;;;;;;4.24;99.29;97098.72;5052356;28;20416;-59
2021/04/12 08:16:53;;;;;;;16.40;13.47;;;;;;;4.13;98.81;97105.09;5051799;28;20870;-59
2021/04/12 08:19:42;;;;;;;16.70;14.90;;;;;;;4.18;99.23;97102.00;5052546;28;20483;-62
2021/04/12 08:22:25;;;;;;;17.90;14.50;;;;;;;4.46;98.03;97103.19;5052818;28;20423;-62
2021/04/12 08:24:56;;;;;;;16.87;14.63;;;;;;;4.50;95.40;97109.69;5052588;28;20404;-62
2021/04/12 08:27:56;;;;;;;15.73;13.50;;;;;;;4.30;96.94;97107.66;5050880;28;20425;-61
2021/04/12 08:30:53;;;;;;;19.47;14.10;;;;;;;4.62;95.54;97107.53;5052633;28;20508;-62
2021/04/12 08:33:30;;;;;;;15.07;12.97;;;;;;;4.99;96.13;97111.06;4979633;28;20431;-62
2021/04/12 08:36:26;;;;;;;16.67;14.13;;;;;;;4.78;96.91;97117.88;5047915;28;20517;-62
2021/04/12 08:39:17;;;;;;;15.90;13.67;;;;;;;4.97;96.57;97107.81;5051238;28;20445;-62
2021/04/12 08:42:01;;;;;;;17.70;14.10;;;;;;;5.44;95.38;97112.84;5051949;28;20410;-59
2021/04/12 08:44:54;;;;;;;15.63;13.87;;;;;;;5.67;93.69;97118.06;5051875;28;20487;-60
2021/04/12 08:47:43;;;;;;;15.30;13.60;;;;;;;5.75;90.11;97116.19;5038819;28;20905;-62
2021/04/12 08:50:29;;;;;;;13.50;11.67;;;;;;;4.88;92.08;97121.88;5055918;28;20502;-63
2021/04/12 08:53:11;;;;;;;14.27;11.20;;;;;;;4.73;94.63;97120.16;5056172;28;20815;-61
2021/04/12 08:56:08;;;;;;;12.23;11.03;;;;;;;4.99;93.38;97123.25;5055254;28;20758;-61
2021/04/12 08:58:39;;;;;;;13.93;11.33;;;;;;;5.48;95.03;97134.16;5054897;28;20969;-61
2021/04/12 09:01:46;;;;;;;12.13;10.93;;;;;;;5.67;91.60;97134.47;5055720;28;20425;-61
2021/04/12 09:04:49;;;;;;;9.00;8.20;;;;;;;5.24;89.88;97141.16;5035779;28;20403;-61
2021/04/12 09:07:49;;;;;;;9.07;7.20;;;;;;;5.32;91.70;97135.09;5036909;28;20421;-62
2021/04/12 09:10:42;;;;;;;12.17;9.60;;;;;;;5.32;93.09;97134.28;5055979;28;20417;-61
2021/04/12 09:13:45;;;;;;;10.23;9.23;;;;;;;5.54;90.96;97134.28;5033892;28;20792;-61
2021/04/12 09:16:16;;;;;;;10.67;9.57;;;;;;;5.29;91.52;97140.63;5035522;28;20398;-61
2021/04/12 09:18:54;;;;;;;11.13;9.63;;;;;;;5.39;90.56;97154.25;5036497;28;20494;-61
2021/04/12 09:21:41;;;;;;;9.80;8.80;;;;;;;5.60;89.40;97151.81;5055323;28;20916;-61
2021/04/12 09:24:28;;;;;;;10.50;9.00;;;;;;;6.19;87.44;97139.75;5054950;28;20462;-61
2021/04/12 09:27:31;;;;;;;9.43;8.53;;;;;;;6.58;86.26;97150.72;5054837;28;20433;-63
2021/04/12 09:30:31;;;;;;;10.10;8.30;;;;;;;6.54;82.65;97156.50;5054049;28;20849;-61
2021/04/12 09:33:21;;;;;;;7.00;6.30;;;;;;;5.88;81.76;97170.38;5054137;28;20425;-61
2021/04/12 09:35:55;;;;;;;10.93;7.70;;;;;;;6.27;85.63;97162.34;5054164;28;20914;-61
2021/04/12 09:38:44;;;;;;;8.23;7.53;;;;;;;6.18;83.86;97169.41;5053907;28;20463;-61
2021/04/12 09:41:10;;;;;;;8.60;7.80;;;;;;;5.99;84.83;97160.31;5054732;28;20967;-61
2021/04/12 09:43:59;;;;;;;9.30;7.70;;;;;;;6.20;83.12;97160.44;5036767;28;20501;-61
2021/04/12 09:47:00;;;;;;;8.63;7.37;;;;;;;6.15;84.53;97162.78;5053199;28;20509;-61
2021/04/12 09:49:56;;;;;;;7.93;6.33;;;;;;;6.56;82.04;97170.19;5054457;28;20421;-62
2021/04/12 09:52:29;;;;;;;7.20;6.50;;;;;;;6.44;80.20;97164.59;5054761;28;20460;-59
2021/04/12 09:55:32;;;;;;;8.23;6.23;;;;;;;7.07;79.92;97172.63;5036340;28;20989;-59
2021/04/12 09:58:22;;;;;;;6.97;6.23;;;;;;;6.77;77.50;97176.28;5054060;28;20453;-63
2021/04/12 10:01:11;;;;;;;6.10;5.50;;;;;;;6.50;79.47;97173.50;5054241;28;20427;-62
2021/04/12 10:03:47;;;;;;;5.20;4.40;;;;;;;6.36;77.59;97171.72;5054319;28;20489;-60
2021/04/12 10:06:33;;;;;;;6.20;5.60;;;;;;;6.43;81.12;97178.66;5054401;28;20819;-62
2021/04/12 10:09:18;;;;;;;5.10;4.60;;;;;;;6.42;77.21;97191.84;5053325;28;20439;-62
2021/04/12 10:11:52;;;;;;;8.43;5.53;;;;;;;6.95;75.49;97194.19;5035716;28;20429;-62
2021/04/12 10:14:20;;;;;;;7.43;6.10;;;;;;;7.33;76.52;97195.66;5050092;28;20820;-61
2021/04/12 10:17:15;;;;;;;4.80;4.40;;;;;;;7.51;72.81;97197.84;5050699;28;20443;-61
2021/04/12 10:19:56;;;;;;;5.00;4.53;;;;;;;7.64;71.88;97201.41;5028198;28;20556;-61
2021/04/12 10:22:41;;;;;;;4.67;4.37;;;;;;;7.32;70.60;97202.66;5043480;28;20445;-61
2021/04/12 10:25:14;;;;;;;4.77;4.37;;;;;;;6.78;72.39;97205.81;5053148;28;20545;-62
2021/04/12 10:27:43;;;;;;;6.40;4.50;;;;;;;6.45;72.90;97196.72;5053265;28;20420;-61
2021/04/12 10:30:17;;;;;;;4.57;4.07;;;;;;;6.96;73.30;97199.22;5032236;28;20443;-61
2021/04/12 10:32:50;;;;;;;4.40;4.00;;;;;;;6.73;67.93;97202.94;5044718;28;20992;-61
2021/04/12 10:35:22;;;;;;;7.20;3.53;;;;;;;7.08;66.44;97196.97;5053686;28;20419;-62
2021/04/12 10:38:06;;;;;;;7.57;5.73;;;;;;;7.94;68.22;97191.59;5034970;28;20477;-61
2021/04/12 10:40:43;;;;;;;3.33;3.03;;;;;;;7.88;65.39;97187.94;5052276;28;20828;-62
2021/04/12 10:43:19;;;;;;;5.10;4.17;;;;;;;7.04;68.00;97190.47;5052627;28;20503;-62
2021/04/12 10:45:50;;;;;;;4.30;3.90;;;;;;;7.13;71.75;97199.84;5053203;28;20419;-62
2021/04/12 10:48:34;;;;;;;4.10;3.20;;;;;;;7.13;67.46;97192.81;5052725;28;20411;-61
2021/04/12 10:51:22;;;;;;;4.33;3.70;;;;;;;7.47;66.76;97192.16;5053370;28;20421;-61
2021/04/12 10:54:06;;;;;;;3.57;3.27;;;;;;;8.13;66.15;97183.91;5053221;28;20405;-61
2021/04/12 10:56:43;;;;;;;4.30;3.90;;;;;;;8.11;63.29;97183.31;5052649;28;20459;-62
2021/04/12 10:59:41;;;;;;;9.50;8.50;;;;;;;8.71;65.57;97182.75;5051608;28;20933;-61
2021/04/12 11:02:23;;;;;;;5.53;4.73;;;;;;;9.14;64.22;97178.09;5053319;28;20410;-61
2021/04/12 11:05:05;;;;;;;5.37;4.60;;;;;;;9.22;61.53;97186.59;5051831;28;20429;-61
2021/04/12 11:08:01;;;;;;;5.30;3.50;;;;;;;9.01;59.65;97191.13;5051586;28;20785;-62
2021/04/12 11:11:05;;;;;;;6.37;5.87;;;;;;;9.14;62.81;97191.19;5052600;28;20408;-62
2021/04/12 11:13:38;;;;;;;5.10;4.20;;;;;;;8.77;62.54;97200.28;5047389;28;20460;-62
2021/04/12 11:16:36;;;;;;;7.27;6.60;;;;;;;8.81;64.66;97203.31;5034610;28;20415;-60
2021/04/12 11:19:17;;;;;;;7.80;7.10;;;;;;;8.86;62.82;97191.25;5052343;28;20461;-61
2021/04/12 11:22:04;;;;;;;6.23;4.27;;;;;;;8.19;63.46;97198.06;5053199;28;20414;-61
2021/04/12 11:24:56;;;;;;;3.90;3.57;;;;;;;8.38;64.53;97197.44;5053257;28;20410;-61
2021/04/12 11:27:46;;;;;;;5.10;3.50;;;;;;;8.39;61.61;97196.41;5052799;28;20802;-59
2021/04/12 11:30:33;;;;;;;3.60;2.93;;;;;;;7.48;60.84;97201.66;5052505;28;20465;-59
2021/04/12 11:33:04;;;;;;;3.40;3.10;;;;;;;7.89;64.37;97200.03;5053133;28;20414;-60
2021/04/12 11:35:51;;;;;;;4.60;3.30;;;;;;;8.38;62.99;97194.00;5052899;28;20459;-59
2021/04/12 11:38:20;;;;;;;3.63;3.33;;;;;;;8.55;57.60;97190.88;5052659;28;20497;-59
2021/04/12 11:40:59;;;;;;;3.60;3.30;;;;;;;8.12;56.83;97191.97;5052395;28;20443;-59
2021/04/12 11:43:37;;;;;;;2.87;2.67;;;;;;;7.92;56.34;97190.97;5033079;28;20501;-59
2021/04/12 11:46:11;;;;;;;5.00;2.60;;;;;;;7.69;59.21;97200.84;5032836;28;20762;-58
2021/04/12 11:49:00;;;;;;;4.80;3.33;;;;;;;8.49;61.42;97201.31;5032697;28;20429;-60
2021/04/12 11:52:01;;;;;;;3.33;2.67;;;;;;;9.07;59.62;97200.84;5033852;28;20480;-59
2021/04/12 11:54:39;;;;;;;4.30;2.63;;;;;;;9.53;57.65;97199.19;5033627;28;20461;-60
2021/04/12 11:57:24;;;;;;;3.03;2.43;;;;;;;9.81;55.62;97194.63;5056212;28;20449;-59
2021/04/12 12:00:03;;;;;;;2.20;2.00;;;;;;;9.94;56.26;97199.06;5056524;28;20454;-58
2021/04/12 12:03:02;;;;;;;4.97;2.70;;;;;;;9.85;55.96;97197.66;5053490;28;20519;-58
2021/04/12 12:05:43;;;;;;;2.60;2.00;;;;;;;9.80;53.36;97202.69;5055855;28;20423;-60
2021/04/12 12:08:18;;;;;;;2.60;2.40;;;;;;;9.88;51.98;97207.72;5056138;28;20413;-59
2021/04/12 12:11:02;;;;;;;3.90;1.90;;;;;;;9.85;51.75;97208.97;5055464;28;20923;-59
2021/04/12 12:13:59;;;;;;;4.50;2.50;;;;;;;8.75;53.98;97210.16;5055776;28;20436;-59
2021/04/12 12:16:40;;;;;;;2.57;2.27;;;;;;;8.88;54.86;97212.03;5055443;28;20453;-59
2021/04/12 12:19:05;;;;;;;4.80;2.50;;;;;;;8.46;54.83;97212.19;5035835;28;20831;-59
2021/04/12 12:21:47;;;;;;;2.43;1.80;;;;;;;7.93;54.22;97216.16;5055719;28;20425;-58
2021/04/12 12:24:41;;;;;;;2.70;2.40;;;;;;;7.98;56.86;97213.78;5034437;28;20284;-58
2021/04/12 12:27:34;;;;;;;2.67;2.47;;;;;;;7.90;54.73;97219.16;5051967;28;20959;-59
2021/04/12 12:30:25;;;;;;;8.53;2.50;;;;;;;8.07;58.99;97218.72;5052300;28;20805;-59
2021/04/12 12:32:59;;;;;;;1.97;1.87;;;;;;;8.92;56.02;97210.66;5055404;28;20425;-58
2021/04/12 12:35:33;;;;;;;3.53;2.40;;;;;;;9.66;54.82;97212.34;5055438;28;20428;-60
2021/04/12 12:38:12;;;;;;;3.33;1.60;;;;;;;9.11;46.46;97213.34;5035706;28;20479;-58
2021/04/12 12:40:51;;;;;;;1.67;1.57;;;;;;;8.69;49.76;97215.38;5056114;28;20418;-63
2021/04/12 12:43:34;;;;;;;1.93;1.80;;;;;;;8.15;49.15;97223.00;5055822;28;20455;-61
2021/04/12 12:46:25;;;;;;;2.20;1.50;;;;;;;8.47;51.68;97221.66;5055928;28;20824;-61
2021/04/12 12:49:00;;;;;;;2.60;1.63;;;;;;;8.67;52.46;97218.19;5055481;28;20430;-63
2021/04/12 12:51:32;;;;;;;2.20;2.00;;;;;;;9.01;48.86;97217.34;5055583;28;20444;-61
2021/04/12 12:54:02;;;;;;;3.13;1.80;;;;;;;8.89;49.59;97224.16;5055380;28;20450;-62
2021/04/12 12:56:33;;;;;;;3.17;1.93;;;;;;;9.12;48.56;97216.78;5055761;28;20421;-61
2021/04/12 12:59:32;;;;;;;2.30;1.30;;;;;;;9.25;46.24;97215.06;5055292;28;20435;-60
2021/04/12 13:02:12;;;;;;;1.47;1.30;;;;;;;9.65;47.12;97210.72;5019402;28;20426;-58
2021/04/12 13:04:37;;;;;;;3.23;2.10;;;;;;;9.98;46.92;97208.16;5018010;28;20453;-60
2021/04/12 13:07:16;;;;;;;2.03;1.40;;;;;;;10.16;50.35;97213.66;5034778;28;20448;-60